sensor_id;sensor_type;location;lat;lon;timestamp;P1;durP1;ratioP1;P2;durP2;ratioP2
26598;SDS011;14240;51.064;16.612;2022-07-05T00:02:22;38.63;;;15.52;;
26598;SDS011;14240;51.064;16.612;2022-07-05T00:04:48;34.92;;;15.35;;
26598;SDS011;14240;51.064;16.612;2022-07-05T00:07:15;30.10;;;14.33;;
26598;SDS011;14240;51.064;16.612;2022-07-05T00:09:45;40.72;;;16.20;;
26598;SDS011;14240;51.064;16.612;2022-07-05T00:12:16;48.58;;;17.05;;
26598;SDS011;14240;51.064;16.612;2022-07-05T00:14:42;45.90;;;17.27;;
26598;SDS011;14240;51.064;16.612;2022-07-05T00:17:08;46.30;;;17.13;;
26598;SDS011;14240;51.064;16.612;2022-07-05T00:19:35;43.35;;;16.60;;
26598;SDS011;14240;51.064;16.612;2022-07-05T00:22:00;37.63;;;15.73;;
26598;SDS011;14240;51.064;16.612;2022-07-05T00:24:26;49.22;;;17.30;;
26598;SDS011;14240;51.064;16.612;2022-07-05T00:26:52;45.90;;;15.50;;
26598;SDS011;14240;51.064;16.612;2022-07-05T00:29:17;43.83;;;16.65;;
26598;SDS011;14240;51.064;16.612;2022-07-05T00:31:43;43.88;;;15.88;;
26598;SDS011;14240;51.064;16.612;2022-07-05T00:34:09;54.63;;;16.25;;
26598;SDS011;14240;51.064;16.612;2022-07-05T00:36:35;53.22;;;16.70;;
26598;SDS011;14240;51.064;16.612;2022-07-05T00:39:01;38.67;;;16.25;;
26598;SDS011;14240;51.064;16.612;2022-07-05T00:41:26;33.25;;;15.25;;
26598;SDS011;14240;51.064;16.612;2022-07-05T00:43:56;36.42;;;15.00;;
26598;SDS011;14240;51.064;16.612;2022-07-05T00:46:24;42.80;;;14.02;;
26598;SDS011;14240;51.064;16.612;2022-07-05T00:48:50;24.55;;;12.23;;
26598;SDS011;14240;51.064;16.612;2022-07-05T00:51:16;32.50;;;13.50;;
26598;SDS011;14240;51.064;16.612;2022-07-05T00:53:42;21.38;;;12.32;;
26598;SDS011;14240;51.064;16.612;2022-07-05T00:56:09;29.20;;;12.70;;
26598;SDS011;14240;51.064;16.612;2022-07-05T00:58:35;23.48;;;12.30;;
26598;SDS011;14240;51.064;16.612;2022-07-05T01:01:02;29.70;;;13.10;;
26598;SDS011;14240;51.064;16.612;2022-07-05T01:03:29;22.67;;;11.55;;
26598;SDS011;14240;51.064;16.612;2022-07-05T01:05:55;30.90;;;12.95;;
26598;SDS011;14240;51.064;16.612;2022-07-05T01:08:21;21.98;;;12.43;;
26598;SDS011;14240;51.064;16.612;2022-07-05T01:13:14;28.30;;;11.75;;
26598;SDS011;14240;51.064;16.612;2022-07-05T01:15:40;36.83;;;12.35;;
26598;SDS011;14240;51.064;16.612;2022-07-05T01:18:07;31.23;;;13.45;;
26598;SDS011;14240;51.064;16.612;2022-07-05T01:20:33;29.77;;;13.35;;
26598;SDS011;14240;51.064;16.612;2022-07-05T01:23:00;31.10;;;12.80;;
26598;SDS011;14240;51.064;16.612;2022-07-05T01:25:27;24.63;;;13.32;;
26598;SDS011;14240;51.064;16.612;2022-07-05T01:27:54;24.17;;;13.30;;
26598;SDS011;14240;51.064;16.612;2022-07-05T01:30:21;33.00;;;13.30;;
26598;SDS011;14240;51.064;16.612;2022-07-05T01:32:47;35.75;;;13.65;;
26598;SDS011;14240;51.064;16.612;2022-07-05T01:35:13;38.90;;;14.40;;
26598;SDS011;14240;51.064;16.612;2022-07-05T01:37:45;35.90;;;14.35;;
26598;SDS011;14240;51.064;16.612;2022-07-05T01:40:11;38.80;;;13.60;;
26598;SDS011;14240;51.064;16.612;2022-07-05T01:42:38;36.13;;;12.97;;
26598;SDS011;14240;51.064;16.612;2022-07-05T01:45:04;33.97;;;13.07;;
26598;SDS011;14240;51.064;16.612;2022-07-05T01:47:40;40.47;;;12.88;;
26598;SDS011;14240;51.064;16.612;2022-07-05T01:50:12;28.85;;;12.23;;
26598;SDS011;14240;51.064;16.612;2022-07-05T01:52:40;19.38;;;11.68;;
26598;SDS011;14240;51.064;16.612;2022-07-05T01:55:09;22.02;;;11.20;;
26598;SDS011;14240;51.064;16.612;2022-07-05T01:57:35;21.27;;;10.98;;
26598;SDS011;14240;51.064;16.612;2022-07-05T02:00:00;21.58;;;10.52;;
26598;SDS011;14240;51.064;16.612;2022-07-05T02:02:27;25.05;;;9.98;;
26598;SDS011;14240;51.064;16.612;2022-07-05T02:04:52;19.13;;;10.50;;
26598;SDS011;14240;51.064;16.612;2022-07-05T02:07:18;17.67;;;10.43;;
26598;SDS011;14240;51.064;16.612;2022-07-05T02:09:43;26.70;;;9.85;;
26598;SDS011;14240;51.064;16.612;2022-07-05T02:12:09;22.52;;;10.57;;
26598;SDS011;14240;51.064;16.612;2022-07-05T02:14:35;18.80;;;10.20;;
26598;SDS011;14240;51.064;16.612;2022-07-05T02:17:01;21.67;;;9.93;;
26598;SDS011;14240;51.064;16.612;2022-07-05T02:19:26;18.23;;;9.70;;
26598;SDS011;14240;51.064;16.612;2022-07-05T02:21:53;19.60;;;11.00;;
26598;SDS011;14240;51.064;16.612;2022-07-05T02:24:19;15.52;;;10.00;;
26598;SDS011;14240;51.064;16.612;2022-07-05T02:26:45;18.98;;;9.18;;
26598;SDS011;14240;51.064;16.612;2022-07-05T02:29:12;14.02;;;9.70;;
26598;SDS011;14240;51.064;16.612;2022-07-05T02:31:37;19.38;;;9.95;;
26598;SDS011;14240;51.064;16.612;2022-07-05T02:34:03;19.27;;;10.35;;
26598;SDS011;14240;51.064;16.612;2022-07-05T02:36:28;16.52;;;9.63;;
26598;SDS011;14240;51.064;16.612;2022-07-05T02:38:54;20.20;;;10.02;;
26598;SDS011;14240;51.064;16.612;2022-07-05T02:41:20;20.10;;;9.55;;
26598;SDS011;14240;51.064;16.612;2022-07-05T02:43:45;19.55;;;10.23;;
26598;SDS011;14240;51.064;16.612;2022-07-05T02:46:11;19.23;;;10.85;;
26598;SDS011;14240;51.064;16.612;2022-07-05T02:48:37;22.15;;;10.63;;
26598;SDS011;14240;51.064;16.612;2022-07-05T02:51:03;21.75;;;10.23;;
26598;SDS011;14240;51.064;16.612;2022-07-05T02:53:30;18.02;;;9.68;;
26598;SDS011;14240;51.064;16.612;2022-07-05T02:55:56;18.83;;;10.15;;
26598;SDS011;14240;51.064;16.612;2022-07-05T02:58:22;20.15;;;10.05;;
26598;SDS011;14240;51.064;16.612;2022-07-05T03:00:48;17.00;;;9.45;;
26598;SDS011;14240;51.064;16.612;2022-07-05T03:03:17;18.80;;;10.70;;
26598;SDS011;14240;51.064;16.612;2022-07-05T03:05:43;13.65;;;9.15;;
26598;SDS011;14240;51.064;16.612;2022-07-05T03:08:08;16.35;;;9.60;;
26598;SDS011;14240;51.064;16.612;2022-07-05T03:10:34;16.95;;;8.55;;
26598;SDS011;14240;51.064;16.612;2022-07-05T03:13:01;13.52;;;8.95;;
26598;SDS011;14240;51.064;16.612;2022-07-05T03:15:27;13.98;;;8.75;;
26598;SDS011;14240;51.064;16.612;2022-07-05T03:17:52;13.23;;;8.55;;
26598;SDS011;14240;51.064;16.612;2022-07-05T03:20:18;16.55;;;8.73;;
26598;SDS011;14240;51.064;16.612;2022-07-05T03:22:44;18.10;;;9.07;;
26598;SDS011;14240;51.064;16.612;2022-07-05T03:25:09;12.00;;;8.95;;
26598;SDS011;14240;51.064;16.612;2022-07-05T03:27:35;14.25;;;8.25;;
26598;SDS011;14240;51.064;16.612;2022-07-05T03:30:01;21.35;;;8.60;;
26598;SDS011;14240;51.064;16.612;2022-07-05T03:32:29;17.42;;;8.55;;
26598;SDS011;14240;51.064;16.612;2022-07-05T03:34:55;15.90;;;8.85;;
26598;SDS011;14240;51.064;16.612;2022-07-05T03:37:20;17.00;;;9.43;;
26598;SDS011;14240;51.064;16.612;2022-07-05T03:39:46;22.83;;;9.23;;
26598;SDS011;14240;51.064;16.612;2022-07-05T03:42:12;21.90;;;9.30;;
26598;SDS011;14240;51.064;16.612;2022-07-05T03:44:37;13.85;;;8.63;;
26598;SDS011;14240;51.064;16.612;2022-07-05T03:47:03;17.45;;;9.40;;
26598;SDS011;14240;51.064;16.612;2022-07-05T03:49:29;17.63;;;8.55;;
26598;SDS011;14240;51.064;16.612;2022-07-05T03:51:54;13.63;;;8.52;;
26598;SDS011;14240;51.064;16.612;2022-07-05T03:54:20;13.52;;;7.93;;
26598;SDS011;14240;51.064;16.612;2022-07-05T03:56:45;14.93;;;8.90;;
26598;SDS011;14240;51.064;16.612;2022-07-05T03:59:11;12.35;;;8.10;;
26598;SDS011;14240;51.064;16.612;2022-07-05T04:01:37;11.05;;;8.10;;
26598;SDS011;14240;51.064;16.612;2022-07-05T04:04:02;12.02;;;7.78;;
26598;SDS011;14240;51.064;16.612;2022-07-05T04:06:28;13.85;;;7.65;;
26598;SDS011;14240;51.064;16.612;2022-07-05T04:08:54;18.38;;;7.70;;
26598;SDS011;14240;51.064;16.612;2022-07-05T04:11:19;11.93;;;8.00;;
26598;SDS011;14240;51.064;16.612;2022-07-05T04:13:45;17.02;;;8.30;;
26598;SDS011;14240;51.064;16.612;2022-07-05T04:16:11;13.18;;;8.32;;
26598;SDS011;14240;51.064;16.612;2022-07-05T04:18:37;15.77;;;8.77;;
26598;SDS011;14240;51.064;16.612;2022-07-05T04:21:03;14.75;;;9.27;;
26598;SDS011;14240;51.064;16.612;2022-07-05T04:23:29;15.13;;;8.70;;
26598;SDS011;14240;51.064;16.612;2022-07-05T04:25:55;17.27;;;9.57;;
26598;SDS011;14240;51.064;16.612;2022-07-05T04:28:20;15.75;;;10.00;;
26598;SDS011;14240;51.064;16.612;2022-07-05T04:30:46;17.92;;;9.90;;
26598;SDS011;14240;51.064;16.612;2022-07-05T04:33:12;12.43;;;9.48;;
26598;SDS011;14240;51.064;16.612;2022-07-05T04:35:38;18.00;;;10.25;;
26598;SDS011;14240;51.064;16.612;2022-07-05T04:38:04;18.90;;;10.52;;
26598;SDS011;14240;51.064;16.612;2022-07-05T04:40:29;15.98;;;10.65;;
26598;SDS011;14240;51.064;16.612;2022-07-05T04:42:55;19.50;;;10.90;;
26598;SDS011;14240;51.064;16.612;2022-07-05T04:45:21;14.20;;;10.35;;
26598;SDS011;14240;51.064;16.612;2022-07-05T04:47:47;23.33;;;11.38;;
26598;SDS011;14240;51.064;16.612;2022-07-05T04:50:12;15.27;;;11.50;;
26598;SDS011;14240;51.064;16.612;2022-07-05T04:52:38;19.13;;;11.85;;
26598;SDS011;14240;51.064;16.612;2022-07-05T04:55:04;15.18;;;11.93;;
26598;SDS011;14240;51.064;16.612;2022-07-05T04:57:36;15.93;;;10.95;;
26598;SDS011;14240;51.064;16.612;2022-07-05T05:00:03;19.60;;;11.88;;
26598;SDS011;14240;51.064;16.612;2022-07-05T05:02:29;17.15;;;10.13;;
26598;SDS011;14240;51.064;16.612;2022-07-05T05:04:55;17.55;;;12.13;;
26598;SDS011;14240;51.064;16.612;2022-07-05T05:07:20;14.27;;;11.10;;
26598;SDS011;14240;51.064;16.612;2022-07-05T05:09:46;22.02;;;12.85;;
26598;SDS011;14240;51.064;16.612;2022-07-05T05:12:11;19.50;;;11.40;;
26598;SDS011;14240;51.064;16.612;2022-07-05T05:14:37;16.50;;;12.43;;
26598;SDS011;14240;51.064;16.612;2022-07-05T05:17:03;17.50;;;11.90;;
26598;SDS011;14240;51.064;16.612;2022-07-05T05:19:28;21.60;;;12.20;;
26598;SDS011;14240;51.064;16.612;2022-07-05T05:21:54;12.93;;;11.45;;
26598;SDS011;14240;51.064;16.612;2022-07-05T05:24:20;16.65;;;12.23;;
26598;SDS011;14240;51.064;16.612;2022-07-05T05:26:45;18.92;;;12.52;;
26598;SDS011;14240;51.064;16.612;2022-07-05T05:29:12;18.23;;;12.75;;
26598;SDS011;14240;51.064;16.612;2022-07-05T05:31:37;20.15;;;12.90;;
26598;SDS011;14240;51.064;16.612;2022-07-05T05:34:03;24.55;;;13.98;;
26598;SDS011;14240;51.064;16.612;2022-07-05T05:36:29;30.15;;;14.48;;
26598;SDS011;14240;51.064;16.612;2022-07-05T05:38:54;19.25;;;13.55;;
26598;SDS011;14240;51.064;16.612;2022-07-05T05:41:20;19.45;;;14.13;;
26598;SDS011;14240;51.064;16.612;2022-07-05T05:43:45;17.35;;;13.52;;
26598;SDS011;14240;51.064;16.612;2022-07-05T05:46:11;50.22;;;28.60;;
26598;SDS011;14240;51.064;16.612;2022-07-05T05:48:37;144.27;;;102.40;;
26598;SDS011;14240;51.064;16.612;2022-07-05T05:51:02;20.42;;;16.08;;
26598;SDS011;14240;51.064;16.612;2022-07-05T05:53:30;21.48;;;14.88;;
26598;SDS011;14240;51.064;16.612;2022-07-05T05:55:55;22.20;;;15.45;;
26598;SDS011;14240;51.064;16.612;2022-07-05T05:58:22;26.48;;;16.60;;
26598;SDS011;14240;51.064;16.612;2022-07-05T06:00:51;24.85;;;17.45;;
26598;SDS011;14240;51.064;16.612;2022-07-05T06:03:18;29.65;;;17.10;;
26598;SDS011;14240;51.064;16.612;2022-07-05T06:05:45;24.92;;;16.25;;
26598;SDS011;14240;51.064;16.612;2022-07-05T06:08:10;22.85;;;16.45;;
26598;SDS011;14240;51.064;16.612;2022-07-05T06:10:36;24.75;;;17.23;;
26598;SDS011;14240;51.064;16.612;2022-07-05T06:13:04;30.17;;;18.08;;
26598;SDS011;14240;51.064;16.612;2022-07-05T06:15:31;28.02;;;18.13;;
26598;SDS011;14240;51.064;16.612;2022-07-05T06:17:57;24.75;;;17.58;;
26598;SDS011;14240;51.064;16.612;2022-07-05T06:20:25;37.30;;;19.70;;
26598;SDS011;14240;51.064;16.612;2022-07-05T06:22:54;26.95;;;18.45;;
26598;SDS011;14240;51.064;16.612;2022-07-05T06:25:21;30.70;;;20.67;;
26598;SDS011;14240;51.064;16.612;2022-07-05T06:27:47;29.15;;;19.40;;
26598;SDS011;14240;51.064;16.612;2022-07-05T06:30:16;29.15;;;19.50;;
26598;SDS011;14240;51.064;16.612;2022-07-05T06:32:44;32.67;;;18.23;;
26598;SDS011;14240;51.064;16.612;2022-07-05T06:35:11;23.08;;;20.15;;
26598;SDS011;14240;51.064;16.612;2022-07-05T06:37:44;24.80;;;17.98;;
26598;SDS011;14240;51.064;16.612;2022-07-05T06:40:11;24.45;;;18.65;;
26598;SDS011;14240;51.064;16.612;2022-07-05T06:42:41;26.65;;;18.60;;
26598;SDS011;14240;51.064;16.612;2022-07-05T06:45:07;26.60;;;19.33;;
26598;SDS011;14240;51.064;16.612;2022-07-05T06:47:34;27.97;;;18.83;;
26598;SDS011;14240;51.064;16.612;2022-07-05T06:50:00;27.58;;;19.30;;
26598;SDS011;14240;51.064;16.612;2022-07-05T06:52:28;28.70;;;19.70;;
26598;SDS011;14240;51.064;16.612;2022-07-05T06:54:54;25.95;;;19.45;;
26598;SDS011;14240;51.064;16.612;2022-07-05T06:57:20;31.58;;;19.77;;
26598;SDS011;14240;51.064;16.612;2022-07-05T06:59:47;24.92;;;18.67;;
26598;SDS011;14240;51.064;16.612;2022-07-05T07:02:12;27.30;;;19.02;;
26598;SDS011;14240;51.064;16.612;2022-07-05T07:04:38;30.45;;;19.15;;
26598;SDS011;14240;51.064;16.612;2022-07-05T07:07:04;27.42;;;20.35;;
26598;SDS011;14240;51.064;16.612;2022-07-05T07:09:49;23.02;;;17.08;;
26598;SDS011;14240;51.064;16.612;2022-07-05T07:12:15;24.85;;;19.25;;
26598;SDS011;14240;51.064;16.612;2022-07-05T07:14:41;42.40;;;25.63;;
26598;SDS011;14240;51.064;16.612;2022-07-05T07:17:06;39.33;;;28.30;;
26598;SDS011;14240;51.064;16.612;2022-07-05T07:19:32;28.45;;;20.35;;
26598;SDS011;14240;51.064;16.612;2022-07-05T07:21:58;26.60;;;19.33;;
26598;SDS011;14240;51.064;16.612;2022-07-05T07:24:23;19.90;;;14.70;;
26598;SDS011;14240;51.064;16.612;2022-07-05T07:26:49;20.92;;;17.35;;
26598;SDS011;14240;51.064;16.612;2022-07-05T07:29:30;22.27;;;16.10;;
26598;SDS011;14240;51.064;16.612;2022-07-05T07:31:57;17.57;;;14.37;;
26598;SDS011;14240;51.064;16.612;2022-07-05T07:34:23;23.07;;;14.30;;
26598;SDS011;14240;51.064;16.612;2022-07-05T07:36:50;66.90;;;48.97;;
26598;SDS011;14240;51.064;16.612;2022-07-05T07:39:17;20.10;;;14.27;;
26598;SDS011;14240;51.064;16.612;2022-07-05T07:41:43;26.00;;;19.20;;
26598;SDS011;14240;51.064;16.612;2022-07-05T07:44:08;16.48;;;13.75;;
26598;SDS011;14240;51.064;16.612;2022-07-05T07:46:35;14.85;;;12.82;;
26598;SDS011;14240;51.064;16.612;2022-07-05T07:49:01;15.10;;;12.32;;
26598;SDS011;14240;51.064;16.612;2022-07-05T07:51:27;20.40;;;12.73;;
26598;SDS011;14240;51.064;16.612;2022-07-05T07:53:53;14.63;;;12.65;;
26598;SDS011;14240;51.064;16.612;2022-07-05T07:56:18;20.85;;;14.10;;
26598;SDS011;14240;51.064;16.612;2022-07-05T07:58:44;19.63;;;15.15;;
26598;SDS011;14240;51.064;16.612;2022-07-05T08:01:11;16.30;;;13.27;;
26598;SDS011;14240;51.064;16.612;2022-07-05T08:03:37;16.08;;;14.00;;
26598;SDS011;14240;51.064;16.612;2022-07-05T08:06:03;20.25;;;14.82;;
26598;SDS011;14240;51.064;16.612;2022-07-05T08:08:29;16.08;;;14.38;;
26598;SDS011;14240;51.064;16.612;2022-07-05T08:10:54;18.55;;;15.52;;
26598;SDS011;14240;51.064;16.612;2022-07-05T08:13:20;18.30;;;13.63;;
26598;SDS011;14240;51.064;16.612;2022-07-05T08:15:45;13.50;;;10.95;;
26598;SDS011;14240;51.064;16.612;2022-07-05T08:18:11;13.43;;;10.90;;
26598;SDS011;14240;51.064;16.612;2022-07-05T08:20:55;11.65;;;9.23;;
26598;SDS011;14240;51.064;16.612;2022-07-05T08:23:39;10.88;;;8.68;;
26598;SDS011;14240;51.064;16.612;2022-07-05T08:26:05;10.68;;;8.90;;
26598;SDS011;14240;51.064;16.612;2022-07-05T08:28:30;13.18;;;9.90;;
26598;SDS011;14240;51.064;16.612;2022-07-05T08:30:56;10.18;;;9.10;;
26598;SDS011;14240;51.064;16.612;2022-07-05T08:33:22;9.35;;;8.40;;
26598;SDS011;14240;51.064;16.612;2022-07-05T08:35:49;10.73;;;7.65;;
26598;SDS011;14240;51.064;16.612;2022-07-05T08:38:15;7.45;;;5.93;;
26598;SDS011;14240;51.064;16.612;2022-07-05T08:40:43;10.98;;;7.43;;
26598;SDS011;14240;51.064;16.612;2022-07-05T08:43:11;8.43;;;7.53;;
26598;SDS011;14240;51.064;16.612;2022-07-05T08:45:39;10.15;;;7.63;;
26598;SDS011;14240;51.064;16.612;2022-07-05T08:48:09;6.88;;;6.25;;
26598;SDS011;14240;51.064;16.612;2022-07-05T08:50:36;6.63;;;5.97;;
26598;SDS011;14240;51.064;16.612;2022-07-05T08:53:04;9.25;;;6.63;;
26598;SDS011;14240;51.064;16.612;2022-07-05T08:55:33;8.35;;;6.50;;
26598;SDS011;14240;51.064;16.612;2022-07-05T08:57:59;10.52;;;7.05;;
26598;SDS011;14240;51.064;16.612;2022-07-05T09:00:26;9.38;;;6.68;;
26598;SDS011;14240;51.064;16.612;2022-07-05T09:02:51;7.10;;;6.40;;
26598;SDS011;14240;51.064;16.612;2022-07-05T09:05:19;9.25;;;6.65;;
26598;SDS011;14240;51.064;16.612;2022-07-05T09:07:54;7.50;;;6.20;;
26598;SDS011;14240;51.064;16.612;2022-07-05T09:10:25;9.18;;;7.05;;
26598;SDS011;14240;51.064;16.612;2022-07-05T09:12:54;9.23;;;7.05;;
26598;SDS011;14240;51.064;16.612;2022-07-05T09:15:20;8.18;;;6.60;;
26598;SDS011;14240;51.064;16.612;2022-07-05T09:17:46;7.35;;;6.18;;
26598;SDS011;14240;51.064;16.612;2022-07-05T09:20:13;11.57;;;7.28;;
26598;SDS011;14240;51.064;16.612;2022-07-05T09:22:44;7.28;;;6.45;;
26598;SDS011;14240;51.064;16.612;2022-07-05T09:25:16;11.13;;;6.60;;
26598;SDS011;14240;51.064;16.612;2022-07-05T09:27:59;6.57;;;5.70;;
26598;SDS011;14240;51.064;16.612;2022-07-05T09:35:36;8.07;;;6.65;;
26598;SDS011;14240;51.064;16.612;2022-07-05T09:38:06;7.45;;;6.65;;
26598;SDS011;14240;51.064;16.612;2022-07-05T09:40:45;8.38;;;6.28;;
26598;SDS011;14240;51.064;16.612;2022-07-05T09:43:18;10.48;;;7.10;;
26598;SDS011;14240;51.064;16.612;2022-07-05T09:48:23;10.30;;;5.38;;
26598;SDS011;14240;51.064;16.612;2022-07-05T09:50:49;8.27;;;6.45;;
26598;SDS011;14240;51.064;16.612;2022-07-05T09:53:16;8.65;;;6.25;;
26598;SDS011;14240;51.064;16.612;2022-07-05T09:56:01;8.18;;;5.70;;
26598;SDS011;14240;51.064;16.612;2022-07-05T09:58:27;6.32;;;5.65;;
26598;SDS011;14240;51.064;16.612;2022-07-05T10:00:53;7.28;;;6.18;;
26598;SDS011;14240;51.064;16.612;2022-07-05T10:03:18;8.27;;;6.60;;
26598;SDS011;14240;51.064;16.612;2022-07-05T10:05:44;8.40;;;6.15;;
26598;SDS011;14240;51.064;16.612;2022-07-05T10:08:10;7.30;;;6.60;;
26598;SDS011;14240;51.064;16.612;2022-07-05T10:10:38;8.88;;;7.38;;
26598;SDS011;14240;51.064;16.612;2022-07-05T10:13:04;6.93;;;6.22;;
26598;SDS011;14240;51.064;16.612;2022-07-05T10:15:34;10.95;;;6.82;;
26598;SDS011;14240;51.064;16.612;2022-07-05T10:20:34;7.30;;;5.72;;
26598;SDS011;14240;51.064;16.612;2022-07-05T10:23:16;8.25;;;5.95;;
26598;SDS011;14240;51.064;16.612;2022-07-05T10:25:46;8.50;;;6.57;;
26598;SDS011;14240;51.064;16.612;2022-07-05T10:28:13;10.10;;;6.32;;
26598;SDS011;14240;51.064;16.612;2022-07-05T10:30:40;8.57;;;6.25;;
26598;SDS011;14240;51.064;16.612;2022-07-05T10:33:07;9.98;;;6.45;;
26598;SDS011;14240;51.064;16.612;2022-07-05T10:35:33;9.05;;;5.78;;
26598;SDS011;14240;51.064;16.612;2022-07-05T10:37:59;7.70;;;5.35;;
26598;SDS011;14240;51.064;16.612;2022-07-05T10:40:27;8.88;;;5.55;;
26598;SDS011;14240;51.064;16.612;2022-07-05T10:42:58;6.43;;;5.22;;
26598;SDS011;14240;51.064;16.612;2022-07-05T10:45:29;6.85;;;5.25;;
26598;SDS011;14240;51.064;16.612;2022-07-05T10:50:48;8.05;;;5.40;;
26598;SDS011;14240;51.064;16.612;2022-07-05T11:06:20;5.28;;;2.75;;
26598;SDS011;14240;51.064;16.612;2022-07-05T11:13:51;8.10;;;3.75;;
26598;SDS011;14240;51.064;16.612;2022-07-05T11:16:19;3.67;;;3.30;;
26598;SDS011;14240;51.064;16.612;2022-07-05T11:18:46;6.15;;;3.17;;
26598;SDS011;14240;51.064;16.612;2022-07-05T11:21:20;4.40;;;3.20;;
26598;SDS011;14240;51.064;16.612;2022-07-05T11:23:47;6.50;;;3.22;;
26598;SDS011;14240;51.064;16.612;2022-07-05T11:26:13;6.70;;;3.47;;
26598;SDS011;14240;51.064;16.612;2022-07-05T11:28:42;5.30;;;3.13;;
26598;SDS011;14240;51.064;16.612;2022-07-05T11:33:36;3.42;;;2.95;;
26598;SDS011;14240;51.064;16.612;2022-07-05T11:36:04;7.57;;;3.20;;
26598;SDS011;14240;51.064;16.612;2022-07-05T11:38:32;3.40;;;3.10;;
26598;SDS011;14240;51.064;16.612;2022-07-05T11:41:19;6.57;;;3.28;;
26598;SDS011;14240;51.064;16.612;2022-07-05T11:43:44;3.95;;;2.88;;
26598;SDS011;14240;51.064;16.612;2022-07-05T11:46:22;4.82;;;2.92;;
26598;SDS011;14240;51.064;16.612;2022-07-05T11:48:48;5.63;;;3.22;;
26598;SDS011;14240;51.064;16.612;2022-07-05T11:53:42;4.85;;;3.10;;
26598;SDS011;14240;51.064;16.612;2022-07-05T11:56:08;3.63;;;3.22;;
26598;SDS011;14240;51.064;16.612;2022-07-05T11:58:35;4.82;;;3.35;;
26598;SDS011;14240;51.064;16.612;2022-07-05T12:01:00;4.97;;;3.00;;
26598;SDS011;14240;51.064;16.612;2022-07-05T12:03:26;4.47;;;3.45;;
26598;SDS011;14240;51.064;16.612;2022-07-05T12:05:53;8.80;;;3.53;;
26598;SDS011;14240;51.064;16.612;2022-07-05T12:08:19;6.03;;;3.55;;
26598;SDS011;14240;51.064;16.612;2022-07-05T12:10:46;6.82;;;3.63;;
26598;SDS011;14240;51.064;16.612;2022-07-05T12:13:30;6.95;;;3.72;;
26598;SDS011;14240;51.064;16.612;2022-07-05T12:15:59;3.88;;;3.47;;
26598;SDS011;14240;51.064;16.612;2022-07-05T12:18:26;5.85;;;3.65;;
26598;SDS011;14240;51.064;16.612;2022-07-05T12:20:53;3.55;;;3.22;;
26598;SDS011;14240;51.064;16.612;2022-07-05T12:23:23;4.68;;;3.33;;
26598;SDS011;14240;51.064;16.612;2022-07-05T12:25:51;4.88;;;3.15;;
26598;SDS011;14240;51.064;16.612;2022-07-05T12:28:17;5.15;;;3.25;;
26598;SDS011;14240;51.064;16.612;2022-07-05T12:30:43;3.95;;;3.05;;
26598;SDS011;14240;51.064;16.612;2022-07-05T12:33:09;4.90;;;3.03;;
26598;SDS011;14240;51.064;16.612;2022-07-05T12:35:53;4.07;;;2.83;;
26598;SDS011;14240;51.064;16.612;2022-07-05T12:38:19;4.00;;;2.85;;
26598;SDS011;14240;51.064;16.612;2022-07-05T12:40:46;4.40;;;3.22;;
26598;SDS011;14240;51.064;16.612;2022-07-05T12:43:19;5.22;;;2.88;;
26598;SDS011;14240;51.064;16.612;2022-07-05T12:48:31;4.20;;;2.85;;
26598;SDS011;14240;51.064;16.612;2022-07-05T12:50:59;5.78;;;2.85;;
26598;SDS011;14240;51.064;16.612;2022-07-05T12:53:26;4.97;;;3.10;;
26598;SDS011;14240;51.064;16.612;2022-07-05T12:56:11;3.80;;;2.88;;
26598;SDS011;14240;51.064;16.612;2022-07-05T12:59:03;3.00;;;2.70;;
26598;SDS011;14240;51.064;16.612;2022-07-05T13:01:33;5.95;;;2.55;;
26598;SDS011;14240;51.064;16.612;2022-07-05T13:04:10;5.03;;;3.00;;
26598;SDS011;14240;51.064;16.612;2022-07-05T13:06:43;7.50;;;2.83;;
26598;SDS011;14240;51.064;16.612;2022-07-05T13:09:36;4.18;;;3.05;;
26598;SDS011;14240;51.064;16.612;2022-07-05T13:12:21;4.45;;;2.90;;
26598;SDS011;14240;51.064;16.612;2022-07-05T13:14:49;3.30;;;2.75;;
26598;SDS011;14240;51.064;16.612;2022-07-05T13:17:16;5.03;;;2.80;;
26598;SDS011;14240;51.064;16.612;2022-07-05T13:19:46;3.67;;;2.50;;
26598;SDS011;14240;51.064;16.612;2022-07-05T13:22:16;6.25;;;3.13;;
26598;SDS011;14240;51.064;16.612;2022-07-05T13:24:42;4.32;;;3.10;;
26598;SDS011;14240;51.064;16.612;2022-07-05T13:27:08;4.47;;;2.90;;
26598;SDS011;14240;51.064;16.612;2022-07-05T13:29:36;6.22;;;2.60;;
26598;SDS011;14240;51.064;16.612;2022-07-05T13:32:02;3.70;;;3.00;;
26598;SDS011;14240;51.064;16.612;2022-07-05T13:34:28;4.80;;;2.45;;
26598;SDS011;14240;51.064;16.612;2022-07-05T13:36:54;4.97;;;3.28;;
26598;SDS011;14240;51.064;16.612;2022-07-05T13:39:21;6.15;;;3.00;;
26598;SDS011;14240;51.064;16.612;2022-07-05T13:41:48;3.73;;;2.70;;
26598;SDS011;14240;51.064;16.612;2022-07-05T13:46:41;3.70;;;2.80;;
26598;SDS011;14240;51.064;16.612;2022-07-05T13:49:07;5.30;;;2.80;;
26598;SDS011;14240;51.064;16.612;2022-07-05T13:51:33;3.72;;;2.63;;
26598;SDS011;14240;51.064;16.612;2022-07-05T13:53:58;2.75;;;2.45;;
26598;SDS011;14240;51.064;16.612;2022-07-05T13:56:24;4.70;;;2.78;;
26598;SDS011;14240;51.064;16.612;2022-07-05T13:58:51;4.50;;;2.92;;
26598;SDS011;14240;51.064;16.612;2022-07-05T14:01:17;3.22;;;2.63;;
26598;SDS011;14240;51.064;16.612;2022-07-05T14:03:45;6.13;;;2.92;;
26598;SDS011;14240;51.064;16.612;2022-07-05T14:06:11;3.63;;;2.60;;
26598;SDS011;14240;51.064;16.612;2022-07-05T14:08:36;4.43;;;2.45;;
26598;SDS011;14240;51.064;16.612;2022-07-05T14:11:02;3.38;;;2.05;;
26598;SDS011;14240;51.064;16.612;2022-07-05T14:13:28;3.60;;;2.40;;
26598;SDS011;14240;51.064;16.612;2022-07-05T14:15:54;4.57;;;2.30;;
26598;SDS011;14240;51.064;16.612;2022-07-05T14:18:20;4.25;;;2.80;;
26598;SDS011;14240;51.064;16.612;2022-07-05T14:20:49;2.40;;;2.20;;
26598;SDS011;14240;51.064;16.612;2022-07-05T14:23:15;2.60;;;2.30;;
26598;SDS011;14240;51.064;16.612;2022-07-05T14:25:41;2.80;;;2.13;;
26598;SDS011;14240;51.064;16.612;2022-07-05T14:28:08;5.93;;;2.55;;
26598;SDS011;14240;51.064;16.612;2022-07-05T14:30:37;3.38;;;2.30;;
26598;SDS011;14240;51.064;16.612;2022-07-05T14:33:05;3.58;;;2.15;;
26598;SDS011;14240;51.064;16.612;2022-07-05T14:35:31;3.65;;;2.33;;
26598;SDS011;14240;51.064;16.612;2022-07-05T14:37:58;3.92;;;2.30;;
26598;SDS011;14240;51.064;16.612;2022-07-05T14:40:24;3.80;;;2.50;;
26598;SDS011;14240;51.064;16.612;2022-07-05T14:42:54;3.22;;;2.00;;
26598;SDS011;14240;51.064;16.612;2022-07-05T14:45:20;3.15;;;2.65;;
26598;SDS011;14240;51.064;16.612;2022-07-05T14:47:46;5.45;;;2.42;;
26598;SDS011;14240;51.064;16.612;2022-07-05T14:50:13;4.53;;;2.25;;
26598;SDS011;14240;51.064;16.612;2022-07-05T14:52:39;4.68;;;2.60;;
26598;SDS011;14240;51.064;16.612;2022-07-05T14:55:06;3.17;;;2.17;;
26598;SDS011;14240;51.064;16.612;2022-07-05T14:57:32;2.90;;;1.92;;
26598;SDS011;14240;51.064;16.612;2022-07-05T14:59:58;3.17;;;2.30;;
26598;SDS011;14240;51.064;16.612;2022-07-05T15:02:23;5.25;;;2.10;;
26598;SDS011;14240;51.064;16.612;2022-07-05T15:04:49;3.55;;;2.40;;
26598;SDS011;14240;51.064;16.612;2022-07-05T15:07:15;4.07;;;2.03;;